Time;durP1;ratioP1;P1;durP2;ratioP2;P2;SDS_P1;SDS_P2;PMS_P1;PMS_P2;Temp;Humidity;BMP_temperature;BMP_pressure;BME280_temperature;BME280_humidity;BME280_pressure;Samples;Min_cycle;Max_cycle;Signal;HPM_P1;HPM_P2
2022/02/12 00:00:11;;;;;;;;;;;3.20;99.90;3.70;100809.00;;;;342707;28;93281;-87
2022/02/12 00:00:24;;;;;;;;;;;3.30;99.90;3.70;100805.00;;;;340536;28;83175;-86
2022/02/12 00:00:37;;;;;;;;;;;3.30;99.90;3.70;100812.00;;;;341348;28;89228;-87
2022/02/12 00:00:48;;;;;;;;;;;3.30;99.90;3.80;100818.00;;;;344591;28;83369;-87
2022/02/12 00:01:00;;;;;;;;;;;3.30;99.90;3.80;100811.00;;;;341394;28;92326;-87
2022/02/12 00:01:12;;;;;;;;;;;3.20;99.90;3.80;100802.00;;;;341890;28;82462;-87
2022/02/12 00:01:24;;;;;;;;;;;3.20;99.90;3.80;100810.00;;;;340186;28;91652;-87
2022/02/12 00:01:36;;;;;;;;;;;3.20;99.90;3.80;100809.00;;;;340591;28;83425;-87
2022/02/12 00:01:48;;;;;;;;;;;3.20;99.90;3.80;100805.00;;;;340442;28;88777;-86
2022/02/12 00:02:00;;;;;;;;;;;3.20;99.90;3.90;100800.00;;;;341254;28;82315;-87
2022/02/12 00:02:12;;;;;;;;;;;3.20;99.90;3.90;100805.00;;;;342693;28;93287;-87
2022/02/12 00:02:24;;;;;;;;;;;3.20;99.90;3.90;100804.00;;;;343141;28;83332;-86
2022/02/12 00:02:37;;;;;;;;;;;3.20;99.90;3.90;100809.00;;;;341404;28;90977;-87
2022/02/12 00:02:49;;;;;;;;;;;3.20;99.90;3.90;100804.00;;;;341562;28;83322;-86
2022/02/12 00:03:01;;;;;;;;;;;3.20;99.90;3.80;100804.00;;;;344028;28;91568;-87
2022/02/12 00:03:13;;;;;;;;;;;3.30;99.90;3.80;100807.00;;;;343201;28;84235;-87
2022/02/12 00:03:25;;;;;;;;;;;3.20;99.90;3.90;100809.00;;;;341540;28;89489;-86
2022/02/12 00:03:37;;;;;;;;;;;3.20;99.90;3.90;100803.00;;;;341810;28;83493;-87
2022/02/12 00:03:49;;;;;;;;;;;3.20;99.90;3.90;100804.00;;;;340125;28;88061;-86
2022/02/12 00:04:01;;;;;;;;;;;3.20;99.90;3.70;100812.00;;;;339172;28;82502;-87
2022/02/12 00:04:13;;;;;;;;;;;3.20;99.90;3.70;100813.00;;;;342553;28;91756;-87
2022/02/12 00:04:24;;;;;;;;;;;3.20;99.90;3.70;100799.00;;;;343193;28;82287;-87
2022/02/12 00:04:37;;;;;;;;;;;3.20;99.90;3.80;100812.00;;;;341320;28;92382;-87
2022/02/12 00:04:50;;;;;;;;;;;3.20;99.90;3.80;100798.00;;;;341007;28;83584;-85
2022/02/12 00:05:02;;;;;;;;;;;3.20;99.90;3.70;100806.00;;;;342738;28;88677;-84
2022/02/12 00:05:14;;;;;;;;;;;3.20;99.90;3.70;100800.00;;;;344549;28;83635;-85
2022/02/12 00:05:26;;;;;;;;;;;3.20;99.90;3.80;100807.00;;;;341628;28;88742;-85
2022/02/12 00:05:38;;;;;;;;;;;3.20;99.90;3.80;100801.00;;;;340528;28;82549;-85
2022/02/12 00:05:50;;;;;;;;;;;3.20;99.90;3.90;100807.00;;;;339290;28;90711;-84
2022/02/12 00:06:02;;;;;;;;;;;3.20;99.90;3.90;100807.00;;;;341854;28;83473;-84
2022/02/12 00:06:13;;;;;;;;;;;3.20;99.90;3.90;100797.00;;;;344164;28;89797;-85
2022/02/12 00:06:25;;;;;;;;;;;3.20;99.90;3.80;100799.00;;;;341825;28;83302;-85
2022/02/12 00:06:38;;;;;;;;;;;3.20;99.90;3.70;100805.00;;;;341352;28;91116;-84
2022/02/12 00:06:49;;;;;;;;;;;3.20;99.90;3.80;100796.00;;;;341553;28;83187;-85
2022/02/12 00:07:01;;;;;;;;;;;3.20;99.90;3.90;100801.00;;;;341421;28;92313;-85
2022/02/12 00:07:13;;;;;;;;;;;3.20;99.90;3.80;100797.00;;;;341951;28;83208;-84
2022/02/12 00:07:26;;;;;;;;;;;3.20;99.90;3.80;100808.00;;;;340105;28;90641;-85
2022/02/12 00:07:38;;;;;;;;;;;3.20;99.90;3.80;100805.00;;;;341824;28;83324;-85
2022/02/12 00:07:54;;;;;;;;;;;3.20;99.90;3.80;100803.00;;;;342080;28;89008;-84
2022/02/12 00:08:05;;;;;;;;;;;3.20;99.90;3.70;100797.00;;;;340415;28;83583;-85
2022/02/12 00:08:17;;;;;;;;;;;3.20;99.90;3.70;100797.00;;;;342624;28;93237;-85
2022/02/12 00:08:29;;;;;;;;;;;3.20;99.90;3.80;100799.00;;;;341906;28;83605;-85
2022/02/12 00:08:41;;;;;;;;;;;3.20;99.90;3.80;100799.00;;;;342668;28;91609;-85
2022/02/12 00:08:53;;;;;;;;;;;3.20;99.90;3.80;100802.00;;;;341499;28;83481;-85
2022/02/12 00:09:04;;;;;;;;;;;3.20;99.90;3.70;100796.00;;;;342863;28;88032;-85
2022/02/12 00:09:16;;;;;;;;;;;3.20;99.90;3.70;100791.00;;;;340432;28;82450;-84
2022/02/12 00:09:28;;;;;;;;;;;3.20;99.90;3.70;100798.00;;;;338596;28;92520;-85
2022/02/12 00:09:39;;;;;;;;;;;3.20;99.90;3.60;100797.00;;;;339276;28;83118;-85
2022/02/12 00:09:53;;;;;;;;;;;3.10;99.90;3.70;100797.00;;;;340083;28;88816;-85
2022/02/12 00:10:04;;;;;;;;;;;3.20;99.90;3.70;100796.00;;;;341938;28;83277;-84
2022/02/12 00:10:16;;;;;;;;;;;3.20;99.90;3.80;100788.00;;;;341471;28;90104;-84
2022/02/12 00:10:29;;;;;;;;;;;3.10;99.90;3.80;100799.00;;;;340594;28;83245;-85
2022/02/12 00:10:42;;;;;;;;;;;3.10;99.90;3.70;100799.00;;;;340067;28;92377;-85
2022/02/12 00:10:54;;;;;;;;;;;3.20;99.90;3.80;100789.00;;;;340111;28;86010;-84
2022/02/12 00:11:06;;;;;;;;;;;3.10;99.90;3.80;100793.00;;;;341478;28;91224;-84
2022/02/12 00:11:18;;;;;;;;;;;3.10;99.90;3.80;100795.00;;;;340481;28;83515;-85
2022/02/12 00:11:30;;;;;;;;;;;3.10;99.90;3.70;100787.00;;;;340091;28;91684;-85
2022/02/12 00:11:41;;;;;;;;;;;3.10;99.90;3.80;100791.00;;;;341928;28;83303;-85
2022/02/12 00:11:53;;;;;;;;;;;3.10;99.90;3.80;100790.00;;;;341251;28;89203;-84
2022/02/12 00:12:05;;;;;;;;;;;3.20;99.90;3.80;100790.00;;;;339013;28;83489;-85
2022/02/12 00:12:17;;;;;;;;;;;3.20;99.90;3.80;100788.00;;;;338763;28;90010;-85
2022/02/12 00:12:29;;;;;;;;;;;3.20;99.90;3.80;100797.00;;;;340430;28;83469;-85
2022/02/12 00:12:40;;;;;;;;;;;3.20;99.90;3.80;100795.00;;;;338798;28;89417;-85
2022/02/12 00:12:52;;;;;;;;;;;3.10;99.90;3.80;100787.00;;;;340525;28;83159;-85
2022/02/12 00:13:11;;;;;;;;;;;3.20;99.90;3.80;100798.00;;;;340070;28;91420;-85
2022/02/12 00:13:23;;;;;;;;;;;3.10;99.90;3.70;100796.00;;;;341930;28;82557;-84
2022/02/12 00:13:35;;;;;;;;;;;3.20;99.90;3.80;100786.00;;;;340201;28;88730;-85
2022/02/12 00:13:47;;;;;;;;;;;3.20;99.90;3.80;100796.00;;;;341385;28;83611;-85
2022/02/12 00:13:59;;;;;;;;;;;3.20;99.90;3.90;100794.00;;;;342633;28;91797;-85
2022/02/12 00:14:10;;;;;;;;;;;3.20;99.90;3.90;100790.00;;;;341995;28;83375;-85
2022/02/12 00:14:22;;;;;;;;;;;3.20;99.90;3.90;100789.00;;;;341361;28;89725;-85
2022/02/12 00:14:34;;;;;;;;;;;3.20;99.90;3.80;100796.00;;;;341674;28;83883;-85
2022/02/12 00:14:46;;;;;;;;;;;3.20;99.90;3.80;100793.00;;;;342817;28;89049;-85
2022/02/12 00:14:58;;;;;;;;;;;3.20;99.90;3.80;100785.00;;;;341900;28;83208;-85
2022/02/12 00:15:10;;;;;;;;;;;3.20;99.90;3.80;100783.00;;;;341331;28;92301;-84
2022/02/12 00:15:22;;;;;;;;;;;3.20;99.90;3.90;100797.00;;;;341876;28;83330;-85
2022/02/12 00:15:34;;;;;;;;;;;3.20;99.90;3.80;100797.00;;;;340213;28;89017;-84
2022/02/12 00:15:45;;;;;;;;;;;3.20;99.90;3.80;100800.00;;;;339173;28;82573;-84
2022/02/12 00:15:57;;;;;;;;;;;3.20;99.90;3.90;100797.00;;;;340061;28;92073;-85
2022/02/12 00:16:09;;;;;;;;;;;3.20;99.90;3.80;100791.00;;;;341862;28;83343;-85
2022/02/12 00:16:21;;;;;;;;;;;3.20;99.90;3.90;100792.00;;;;340104;28;90119;-85
2022/02/12 00:16:32;;;;;;;;;;;3.20;99.90;3.90;100797.00;;;;340498;28;82447;-85
2022/02/12 00:16:44;;;;;;;;;;;3.20;99.90;3.90;100796.00;;;;338534;28;88962;-84
2022/02/12 00:16:56;;;;;;;;;;;3.20;99.90;3.90;100804.00;;;;340095;28;82533;-85
2022/02/12 00:17:09;;;;;;;;;;;3.20;99.90;3.90;100801.00;;;;338766;28;92072;-85
2022/02/12 00:17:21;;;;;;;;;;;3.20;99.90;3.90;100796.00;;;;340191;28;83544;-85
2022/02/12 00:17:32;;;;;;;;;;;3.20;99.90;3.90;100802.00;;;;340034;28;92536;-85
2022/02/12 00:17:45;;;;;;;;;;;3.20;99.90;3.90;100791.00;;;;343056;28;83426;-84
2022/02/12 00:17:56;;;;;;;;;;;3.20;99.90;3.90;100805.00;;;;341367;28;90499;-85
2022/02/12 00:18:08;;;;;;;;;;;3.20;99.90;3.90;100800.00;;;;341908;28;82495;-85
2022/02/12 00:18:20;;;;;;;;;;;3.20;99.90;3.90;100798.00;;;;338716;28;91434;-85
2022/02/12 00:18:32;;;;;;;;;;;3.30;99.90;3.80;100792.00;;;;338734;28;82397;-83
2022/02/12 00:18:44;;;;;;;;;;;3.20;99.90;3.80;100795.00;;;;340037;28;92378;-85
2022/02/12 00:18:55;;;;;;;;;;;3.20;99.90;3.80;100796.00;;;;340441;28;83320;-84
2022/02/12 00:19:08;;;;;;;;;;;3.20;99.90;3.80;100809.00;;;;340152;28;89043;-85
2022/02/12 00:19:19;;;;;;;;;;;3.20;99.90;3.80;100804.00;;;;341820;28;83515;-85
2022/02/12 00:19:31;;;;;;;;;;;3.20;99.90;3.90;100806.00;;;;340228;28;88890;-84
2022/02/12 00:19:43;;;;;;;;;;;3.20;99.90;3.90;100799.00;;;;340438;28;83319;-84
2022/02/12 00:19:55;;;;;;;;;;;3.20;99.90;3.90;100802.00;;;;339918;28;89024;-85
2022/02/12 00:20:07;;;;;;;;;;;3.20;99.90;3.90;100793.00;;;;340516;28;82479;-85
2022/02/12 00:20:19;;;;;;;;;;;3.20;99.90;3.90;100797.00;;;;342924;28;91151;-85
2022/02/12 00:20:30;;;;;;;;;;;3.20;99.90;3.90;100800.00;;;;340497;28;83383;-85
2022/02/12 00:20:42;;;;;;;;;;;3.20;99.90;3.90;100805.00;;;;341460;28;91826;-85
2022/02/12 00:20:54;;;;;;;;;;;3.30;99.90;3.90;100799.00;;;;340338;28;83540;-85
2022/02/12 00:21:06;;;;;;;;;;;3.20;99.90;3.90;100786.00;;;;341476;28;89104;-85
2022/02/12 00:21:18;;;;;;;;;;;3.30;99.90;3.90;100792.00;;;;343130;28;83334;-84
2022/02/12 00:21:30;;;;;;;;;;;3.30;99.90;3.90;100797.00;;;;342928;28;88947;-85
2022/02/12 00:21:43;;;;;;;;;;;3.30;99.90;4.00;100794.00;;;;341828;28;83303;-85
2022/02/12 00:21:55;;;;;;;;;;;3.30;99.90;3.90;100796.00;;;;339838;28;90772;-84
2022/02/12 00:22:06;;;;;;;;;;;3.30;99.90;3.80;100794.00;;;;340525;28;83282;-85
2022/02/12 00:22:18;;;;;;;;;;;3.30;99.90;3.90;100789.00;;;;339743;28;91921;-84
2022/02/12 00:22:30;;;;;;;;;;;3.30;99.90;3.90;100790.00;;;;341775;28;83502;-84
2022/02/12 00:22:43;;;;;;;;;;;3.30;99.90;3.80;100783.00;;;;341281;28;90494;-85
2022/02/12 00:22:54;;;;;;;;;;;3.30;99.90;3.90;100796.00;;;;342396;28;83372;-85
2022/02/12 00:23:06;;;;;;;;;;;3.30;99.90;3.90;100790.00;;;;338768;28;88100;-85
2022/02/12 00:23:18;;;;;;;;;;;3.30;99.90;3.90;100789.00;;;;340483;28;83608;-85
2022/02/12 00:23:29;;;;;;;;;;;3.30;99.90;3.90;100802.00;;;;342926;28;88311;-85
2022/02/12 00:23:43;;;;;;;;;;;3.30;99.90;3.90;100793.00;;;;343149;28;82520;-85
2022/02/12 00:23:55;;;;;;;;;;;3.30;99.90;3.90;100789.00;;;;343935;28;91104;-85
2022/02/12 00:24:06;;;;;;;;;;;3.20;99.90;3.80;100786.00;;;;343221;28;83227;-84
2022/02/12 00:24:18;;;;;;;;;;;3.30;99.90;3.90;100786.00;;;;342731;28;90238;-85
2022/02/12 00:24:30;;;;;;;;;;;3.30;99.90;3.90;100791.00;;;;341889;28;83260;-84
2022/02/12 00:24:43;;;;;;;;;;;3.30;99.90;3.90;100788.00;;;;343994;28;88363;-84
2022/02/12 00:24:55;;;;;;;;;;;3.30;99.90;3.90;100788.00;;;;343030;28;83320;-85
2022/02/12 00:25:07;;;;;;;;;;;3.30;99.90;3.90;100785.00;;;;342766;28;92210;-84
2022/02/12 00:25:19;;;;;;;;;;;3.30;99.90;3.90;100788.00;;;;341870;28;83399;-84
2022/02/12 00:25:31;;;;;;;;;;;3.30;99.90;3.90;100790.00;;;;340129;28;92122;-85
2022/02/12 00:25:44;;;;;;;;;;;3.30;99.90;3.90;100790.00;;;;340264;28;83391;-84
2022/02/12 00:25:55;;;;;;;;;;;3.30;99.90;3.80;100792.00;;;;340846;28;89125;-85
2022/02/12 00:26:07;;;;;;;;;;;3.30;99.90;3.80;100790.00;;;;340541;28;83308;-84
2022/02/12 00:26:22;;;;;;;;;;;3.30;99.90;3.80;100791.00;;;;341255;28;91268;-85
2022/02/12 00:26:34;;;;;;;;;;;3.30;99.90;3.80;100790.00;;;;340519;28;83380;-85
2022/02/12 00:26:45;;;;;;;;;;;3.30;99.90;3.80;100782.00;;;;340072;28;88723;-85
2022/02/12 00:26:57;;;;;;;;;;;3.30;99.90;3.80;100781.00;;;;339229;28;83529;-84
2022/02/12 00:27:09;;;;;;;;;;;3.30;99.90;3.80;100785.00;;;;340082;28;91397;-84
2022/02/12 00:27:21;;;;;;;;;;;3.30;99.90;3.90;100775.00;;;;341950;28;83300;-84
2022/02/12 00:27:33;;;;;;;;;;;3.30;99.90;3.90;100794.00;;;;340163;28;89097;-85
2022/02/12 00:27:44;;;;;;;;;;;3.30;99.90;3.90;100781.00;;;;338835;28;83247;-84
2022/02/12 00:27:56;;;;;;;;;;;3.30;99.90;3.90;100787.00;;;;339977;28;89678;-84
2022/02/12 00:28:08;;;;;;;;;;;3.30;99.90;3.80;100779.00;;;;340518;28;83137;-85
2022/02/12 00:28:21;;;;;;;;;;;3.30;99.90;3.90;100783.00;;;;341442;28;90562;-84
2022/02/12 00:28:33;;;;;;;;;;;3.30;99.90;3.90;100788.00;;;;341872;28;83464;-84
2022/02/12 00:28:45;;;;;;;;;;;3.30;99.90;3.90;100784.00;;;;341629;28;92371;-85
2022/02/12 00:28:56;;;;;;;;;;;3.30;99.90;3.90;100791.00;;;;344439;28;83574;-85
2022/02/12 00:29:08;;;;;;;;;;;3.30;99.90;3.90;100784.00;;;;342820;28;89088;-85
2022/02/12 00:29:20;;;;;;;;;;;3.30;99.90;3.90;100785.00;;;;343733;28;82468;-85
2022/02/12 00:29:31;;;;;;;;;;;3.30;99.90;3.80;100789.00;;;;344283;28;88743;-84
2022/02/12 00:29:46;;;;;;;;;;;3.30;99.90;3.70;100792.00;;;;343145;28;83522;-85
2022/02/12 00:29:58;;;;;;;;;;;3.30;99.90;3.80;100791.00;;;;341443;28;91427;-84
2022/02/12 00:30:10;;;;;;;;;;;3.30;99.90;3.70;100792.00;;;;344731;28;83397;-84
2022/02/12 00:30:22;;;;;;;;;;;3.20;99.90;3.70;100788.00;;;;341370;28;90160;-84
2022/02/12 00:30:33;;;;;;;;;;;3.20;99.90;3.80;100794.00;;;;343220;28;83406;-85
2022/02/12 00:30:45;;;;;;;;;;;3.20;99.90;3.70;100796.00;;;;342763;28;91887;-85
2022/02/12 00:30:57;;;;;;;;;;;3.20;99.90;3.70;100787.00;;;;344523;28;83222;-85
2022/02/12 00:31:10;;;;;;;;;;;3.20;99.90;3.70;100783.00;;;;342772;28;88694;-85
2022/02/12 00:31:21;;;;;;;;;;;3.20;99.90;3.70;100781.00;;;;342959;28;83377;-85
2022/02/12 00:31:33;;;;;;;;;;;3.20;99.90;3.80;100793.00;;;;340130;28;91653;-85
2022/02/12 00:31:45;;;;;;;;;;;3.20;99.90;3.80;100783.00;;;;340430;28;82532;-84
2022/02/12 00:31:58;;;;;;;;;;;3.20;99.90;3.80;100788.00;;;;343598;28;92091;-85
2022/02/12 00:32:09;;;;;;;;;;;3.20;99.90;3.70;100785.00;;;;344647;28;83182;-85
2022/02/12 00:32:21;;;;;;;;;;;3.20;99.90;3.70;100779.00;;;;345089;28;92958;-84
2022/02/12 00:32:33;;;;;;;;;;;3.20;99.90;3.70;100789.00;;;;344599;28;83447;-85
2022/02/12 00:32:46;;;;;;;;;;;3.20;99.90;3.70;100779.00;;;;341384;28;89226;-85
2022/02/12 00:32:57;;;;;;;;;;;3.20;99.90;3.70;100774.00;;;;341796;28;83411;-84
2022/02/12 00:33:09;;;;;;;;;;;3.20;99.90;3.70;100785.00;;;;341414;28;89096;-85
2022/02/12 00:33:21;;;;;;;;;;;3.20;99.90;3.80;100783.00;;;;341997;28;82346;-84
2022/02/12 00:33:33;;;;;;;;;;;3.20;99.90;3.70;100787.00;;;;341391;28;91368;-85
2022/02/12 00:33:46;;;;;;;;;;;3.20;99.90;3.60;100786.00;;;;341925;28;83333;-85
2022/02/12 00:33:58;;;;;;;;;;;3.10;99.90;3.50;100791.00;;;;341319;28;88450;-84
2022/02/12 00:34:09;;;;;;;;;;;3.10;99.90;3.60;100780.00;;;;341960;28;82324;-85
2022/02/12 00:34:21;;;;;;;;;;;3.10;99.90;3.50;100793.00;;;;341411;28;90039;-84
2022/02/12 00:34:33;;;;;;;;;;;3.10;99.90;3.60;100783.00;;;;341788;28;83276;-85
2022/02/12 00:34:46;;;;;;;;;;;3.10;99.90;3.50;100788.00;;;;341021;28;91730;-84
2022/02/12 00:34:58;;;;;;;;;;;3.10;99.90;3.50;100784.00;;;;342909;28;83368;-85
2022/02/12 00:35:09;;;;;;;;;;;3.10;99.90;3.50;100785.00;;;;343955;28;91599;-85
2022/02/12 00:35:22;;;;;;;;;;;3.00;99.90;3.50;100795.00;;;;344262;28;83387;-84
2022/02/12 00:35:34;;;;;;;;;;;3.00;99.90;3.50;100788.00;;;;342714;28;91781;-84
2022/02/12 00:35:46;;;;;;;;;;;3.00;99.90;3.60;100784.00;;;;344435;28;84142;-85
2022/02/12 00:35:58;;;;;;;;;;;3.00;99.90;3.60;100778.00;;;;341429;28;88776;-84
2022/02/12 00:36:10;;;;;;;;;;;3.00;99.90;3.50;100787.00;;;;340604;28;83407;-85
2022/02/12 00:36:22;;;;;;;;;;;3.00;99.90;3.60;100786.00;;;;342683;28;92478;-85
2022/02/12 00:36:33;;;;;;;;;;;3.00;99.90;3.50;100786.00;;;;345951;28;83530;-84
2022/02/12 00:36:47;;;;;;;;;;;3.00;99.90;3.50;100787.00;;;;344154;28;91454;-85
2022/02/12 00:36:58;;;;;;;;;;;3.00;99.90;3.50;100787.00;;;;341917;28;83347;-84
2022/02/12 00:37:10;;;;;;;;;;;3.00;99.90;3.50;100789.00;;;;342734;28;91369;-85
2022/02/12 00:37:24;;;;;;;;;;;3.00;99.90;3.50;100786.00;;;;343258;28;83380;-85
2022/02/12 00:37:36;;;;;;;;;;;3.00;99.90;3.60;100787.00;;;;340107;28;89264;-84
2022/02/12 00:37:48;;;;;;;;;;;3.00;99.90;3.60;100784.00;;;;339951;28;86161;-84
2022/02/12 00:37:59;;;;;;;;;;;3.00;99.90;3.60;100788.00;;;;340458;28;91115;-85
2022/02/12 00:38:11;;;;;;;;;;;3.00;99.90;3.50;100791.00;;;;341789;28;82289;-85
2022/02/12 00:38:23;;;;;;;;;;;3.00;99.90;3.50;100787.00;;;;341324;28;93092;-84
2022/02/12 00:38:34;;;;;;;;;;;2.90;99.90;3.50;100789.00;;;;341730;28;83298;-84
2022/02/12 00:38:50;;;;;;;;;;;2.90;99.90;3.50;100783.00;;;;341433;28;92406;-84
2022/02/12 00:39:01;;;;;;;;;;;2.90;99.90;3.50;100792.00;;;;342120;28;83303;-85
2022/02/12 00:39:13;;;;;;;;;;;2.90;99.90;3.50;100787.00;;;;340359;28;89154;-85
2022/02/12 00:39:25;;;;;;;;;;;2.90;99.90;3.50;100788.00;;;;342103;28;83398;-85
2022/02/12 00:39:37;;;;;;;;;;;2.90;99.90;3.50;100793.00;;;;343026;28;90895;-84
2022/02/12 00:39:48;;;;;;;;;;;2.90;99.90;3.50;100785.00;;;;346175;28;82451;-85
2022/02/12 00:40:00;;;;;;;;;;;2.90;99.90;3.60;100786.00;;;;345767;28;90121;-84
2022/02/12 00:40:12;;;;;;;;;;;2.90;99.90;3.50;100784.00;;;;342168;28;83277;-84
2022/02/12 00:40:25;;;;;;;;;;;2.90;99.90;3.40;100788.00;;;;341404;28;92960;-85
2022/02/12 00:40:37;;;;;;;;;;;2.90;99.90;3.40;100779.00;;;;344834;28;82606;-85
2022/02/12 00:40:48;;;;;;;;;;;2.90;99.90;3.40;100783.00;;;;342973;28;91948;-84
2022/02/12 00:41:00;;;;;;;;;;;2.90;99.90;3.50;100781.00;;;;343470;28;83403;-85
2022/02/12 00:41:12;;;;;;;;;;;2.90;99.90;3.50;100780.00;;;;343112;28;88831;-85
2022/02/12 00:41:24;;;;;;;;;;;2.90;99.90;3.50;100784.00;;;;343439;28;83382;-85
2022/02/12 00:41:36;;;;;;;;;;;2.90;99.90;3.50;100784.00;;;;343066;28;88846;-85
2022/02/12 00:41:48;;;;;;;;;;;2.90;99.90;3.60;100788.00;;;;344579;28;83424;-85
2022/02/12 00:42:00;;;;;;;;;;;2.90;99.90;3.60;100777.00;;;;343036;28;87922;-84
2022/02/12 00:42:12;;;;;;;;;;;2.90;99.90;3.60;100786.00;;;;343498;28;83419;-85
2022/02/12 00:42:24;;;;;;;;;;;2.90;99.90;3.60;100782.00;;;;341438;28;92294;-85
2022/02/12 00:42:35;;;;;;;;;;;2.90;99.90;3.60;100776.00;;;;344641;28;83390;-85
2022/02/12 00:42:49;;;;;;;;;;;2.90;99.90;3.60;100785.00;;;;344333;28;91949;-84
2022/02/12 00:43:01;;;;;;;;;;;2.90;99.90;3.60;100779.00;;;;340781;28;83445;-84
2022/02/12 00:43:13;;;;;;;;;;;2.90;99.90;3.50;100782.00;;;;341684;28;91612;-85
2022/02/12 00:43:25;;;;;;;;;;;2.90;99.90;3.60;100785.00;;;;343461;28;83310;-85
2022/02/12 00:43:37;;;;;;;;;;;2.90;99.90;3.60;100786.00;;;;344329;28;90588;-85
2022/02/12 00:43:49;;;;;;;;;;;2.90;99.90;3.60;100779.00;;;;345303;28;83678;-85
2022/02/12 00:44:01;;;;;;;;;;;2.90;99.90;3.70;100777.00;;;;345694;28;91713;-84
2022/02/12 00:44:12;;;;;;;;;;;3.00;99.90;3.60;100784.00;;;;343489;28;82576;-85
2022/02/12 00:44:24;;;;;;;;;;;2.90;99.90;3.60;100783.00;;;;341552;28;91634;-84
2022/02/12 00:44:36;;;;;;;;;;;2.90;99.90;3.60;100785.00;;;;342066;28;82405;-85
2022/02/12 00:44:50;;;;;;;;;;;3.00;99.90;3.60;100782.00;;;;342838;28;92758;-84
2022/02/12 00:45:02;;;;;;;;;;;2.90;99.90;3.60;100779.00;;;;341932;28;82336;-84
2022/02/12 00:45:13;;;;;;;;;;;2.90;99.90;3.70;100780.00;;;;341351;28;92500;-85
2022/02/12 00:45:28;;;;;;;;;;;3.00;99.90;3.60;100781.00;;;;343615;28;83292;-85
2022/02/12 00:45:39;;;;;;;;;;;2.90;99.90;3.70;100787.00;;;;342968;28;91503;-85
2022/02/12 00:45:52;;;;;;;;;;;2.90;99.90;3.70;100778.00;;;;341979;28;83226;-85
2022/02/12 00:46:04;;;;;;;;;;;2.90;99.90;3.70;100778.00;;;;341700;28;90967;-85
2022/02/12 00:46:16;;;;;;;;;;;2.90;99.90;3.60;100779.00;;;;343407;28;83482;-84
2022/02/12 00:46:27;;;;;;;;;;;3.00;99.90;3.60;100785.00;;;;341484;28;90625;-85
2022/02/12 00:46:39;;;;;;;;;;;2.90;99.90;3.70;100777.00;;;;339384;28;83419;-85
2022/02/12 00:46:52;;;;;;;;;;;3.00;99.90;3.60;100780.00;;;;340049;28;91866;-84
2022/02/12 00:47:04;;;;;;;;;;;3.00;99.90;3.50;100779.00;;;;342034;28;83374;-84
2022/02/12 00:47:15;;;;;;;;;;;3.00;99.90;3.60;100783.00;;;;341602;28;89053;-85
2022/02/12 00:47:28;;;;;;;;;;;3.00;99.90;3.60;100776.00;;;;343495;28;83268;-85
2022/02/12 00:47:40;;;;;;;;;;;3.00;99.90;3.60;100776.00;;;;343095;28;88138;-84
2022/02/12 00:47:52;;;;;;;;;;;3.00;99.90;3.60;100783.00;;;;342949;28;83591;-85
2022/02/12 00:48:04;;;;;;;;;;;3.00;99.90;3.70;100780.00;;;;340382;28;88243;-84
2022/02/12 00:48:15;;;;;;;;;;;3.00;99.90;3.70;100786.00;;;;341987;28;82464;-85
2022/02/12 00:48:27;;;;;;;;;;;3.00;99.90;3.60;100781.00;;;;342657;28;92614;-85
2022/02/12 00:48:39;;;;;;;;;;;3.00;99.90;3.60;100781.00;;;;343476;28;83360;-84
2022/02/12 00:48:51;;;;;;;;;;;3.00;99.90;3.70;100772.00;;;;343036;28;89281;-84
2022/02/12 00:49:06;;;;;;;;;;;3.00;99.90;3.70;100778.00;;;;343459;28;83478;-85
2022/02/12 00:49:17;;;;;;;;;;;3.00;99.90;3.70;100783.00;;;;341702;28;89001;-85
2022/02/12 00:49:31;;;;;;;;;;;3.00;99.90;3.70;100784.00;;;;342124;28;83413;-85
2022/02/12 00:49:43;;;;;;;;;;;3.00;99.90;3.70;100785.00;;;;344098;28;89488;-85
2022/02/12 00:49:55;;;;;;;;;;;3.00;99.90;3.70;100784.00;;;;343282;28;83518;-85
2022/02/12 00:50:08;;;;;;;;;;;3.00;99.90;3.70;100785.00;;;;340384;28;92088;-85
2022/02/12 00:50:20;;;;;;;;;;;3.00;99.90;3.70;100780.00;;;;341705;28;83471;-84
2022/02/12 00:50:31;;;;;;;;;;;3.00;99.90;3.70;100789.00;;;;341581;28;92404;-85
2022/02/12 00:50:43;;;;;;;;;;;3.00;99.90;3.70;100784.00;;;;342045;28;82311;-85
2022/02/12 00:50:59;;;;;;;;;;;3.00;99.90;3.70;100785.00;;;;341735;28;88560;-85
2022/02/12 00:51:13;;;;;;;;;;;3.00;99.90;3.70;100790.00;;;;343342;28;83487;-84
2022/02/12 00:51:25;;;;;;;;;;;3.00;99.90;3.70;100787.00;;;;341630;28;92027;-85
2022/02/12 00:51:37;;;;;;;;;;;3.00;99.90;3.80;100780.00;;;;343501;28;82349;-84
2022/02/12 00:51:51;;;;;;;;;;;3.00;99.90;3.70;100786.00;;;;341433;28;91622;-85
2022/02/12 00:52:03;;;;;;;;;;;3.10;99.90;3.70;100780.00;;;;343195;28;83440;-84
2022/02/12 00:52:15;;;;;;;;;;;3.00;99.90;3.70;100784.00;;;;340272;28;92139;-84
2022/02/12 00:52:27;;;;;;;;;;;3.10;99.90;3.80;100781.00;;;;343510;28;82416;-84
2022/02/12 00:52:38;;;;;;;;;;;3.10;99.90;3.80;100784.00;;;;341660;28;90305;-85
2022/02/12 00:52:52;;;;;;;;;;;3.10;99.90;3.80;100784.00;;;;345853;28;83407;-85
2022/02/12 00:53:03;;;;;;;;;;;3.10;99.90;3.70;100782.00;;;;341589;28;92118;-85
2022/02/12 00:53:15;;;;;;;;;;;3.10;99.90;3.70;100778.00;;;;342024;28;83407;-84
2022/02/12 00:53:27;;;;;;;;;;;3.10;99.90;3.70;100787.00;;;;340484;28;88817;-85
2022/02/12 00:53:39;;;;;;;;;;;3.10;99.90;3.60;100778.00;;;;342161;28;82300;-85
2022/02/12 00:53:52;;;;;;;;;;;3.10;99.90;3.70;100780.00;;;;342651;28;91185;-84
2022/02/12 00:54:06;;;;;;;;;;;3.10;99.90;3.70;100776.00;;;;340853;28;82456;-85
2022/02/12 00:54:18;;;;;;;;;;;3.10;99.90;3.80;100778.00;;;;340259;28;90930;-85
2022/02/12 00:54:32;;;;;;;;;;;3.10;99.90;3.80;100778.00;;;;342077;28;83475;-85
2022/02/12 00:54:43;;;;;;;;;;;3.10;99.90;3.80;100778.00;;;;344210;28;91861;-85
2022/02/12 00:54:55;;;;;;;;;;;3.10;99.90;3.80;100779.00;;;;343368;28;83340;-85
2022/02/12 00:55:07;;;;;;;;;;;3.10;99.90;3.70;100776.00;;;;344012;28;88204;-85
2022/02/12 00:55:19;;;;;;;;;;;3.10;99.90;3.70;100777.00;;;;340711;28;83493;-84
2022/02/12 00:55:31;;;;;;;;;;;3.10;99.90;3.70;100779.00;;;;340428;28;89013;-84
2022/02/12 00:55:42;;;;;;;;;;;3.10;99.90;3.70;100771.00;;;;340503;28;83242;-84
2022/02/12 00:55:55;;;;;;;;;;;3.10;99.90;3.70;100778.00;;;;341512;28;91112;-85
2022/02/12 00:56:07;;;;;;;;;;;3.10;99.90;3.70;100783.00;;;;340798;28;83466;-84
2022/02/12 00:56:18;;;;;;;;;;;3.10;99.90;3.80;100773.00;;;;340279;28;88914;-85
2022/02/12 00:56:31;;;;;;;;;;;3.10;99.90;3.60;100765.00;;;;341976;28;83344;-83
2022/02/12 00:56:43;;;;;;;;;;;3.10;99.90;3.60;100778.00;;;;341644;28;90434;-85
2022/02/12 00:56:54;;;;;;;;;;;3.10;99.90;3.50;100781.00;;;;340778;28;83427;-84
2022/02/12 00:57:06;;;;;;;;;;;3.10;99.90;3.60;100775.00;;;;340300;28;91352;-85
2022/02/12 00:57:18;;;;;;;;;;;3.10;99.90;3.60;100771.00;;;;342006;28;83268;-85
2022/02/12 00:57:31;;;;;;;;;;;3.10;99.90;3.60;100782.00;;;;343080;28;88963;-84
2022/02/12 00:57:43;;;;;;;;;;;3.10;99.90;3.70;100772.00;;;;343527;28;82352;-84
2022/02/12 00:57:55;;;;;;;;;;;3.00;99.90;3.70;100775.00;;;;339059;28;89151;-85
2022/02/12 00:58:06;;;;;;;;;;;3.10;99.90;3.70;100774.00;;;;339484;28;83144;-84
2022/02/12 00:58:19;;;;;;;;;;;3.00;99.90;3.70;100773.00;;;;341654;28;92554;-85
2022/02/12 00:58:30;;;;;;;;;;;3.10;99.90;3.70;100777.00;;;;343459;28;83386;-85
2022/02/12 00:58:42;;;;;;;;;;;3.10;99.90;3.70;100777.00;;;;342666;28;92107;-84
2022/02/12 00:58:54;;;;;;;;;;;3.10;99.90;3.70;100771.00;;;;342974;28;82325;-85
2022/02/12 00:59:06;;;;;;;;;;;3.10;99.90;3.70;100777.00;;;;341548;28;88141;-85
2022/02/12 00:59:17;;;;;;;;;;;3.10;99.90;3.70;100767.00;;;;340660;28;83316;-85
2022/02/12 00:59:29;;;;;;;;;;;3.10;99.90;3.70;100777.00;;;;341703;28;89493;-85
2022/02/12 00:59:41;;;;;;;;;;;3.10;99.90;3.70;100783.00;;;;342198;28;82407;-85
2022/02/12 00:59:54;;;;;;;;;;;3.10;99.90;3.70;100779.00;;;;340079;28;91521;-85
2022/02/12 01:00:06;;;;;;;;;;;3.10;99.90;3.60;100780.00;;;;343411;28;83545;-85
2022/02/12 01:00:18;;;;;;;;;;;3.10;99.90;3.70;100777.00;;;;340388;28;88193;-85
2022/02/12 01:00:30;;;;;;;;;;;3.10;99.90;3.70;100777.00;;;;340720;28;83298;-85
2022/02/12 01:00:41;;;;;;;;;;;3.10;99.90;3.70;100771.00;;;;340336;28;90022;-84